sensor_id;sensor_type;location;lat;lon;timestamp;temperature;humidity
9881;DHT22;4979;51.014;6.678;2023-07-09T00:01:51;24.00;99.90
9881;DHT22;4979;51.014;6.678;2023-07-09T00:04:17;24.00;99.90
9881;DHT22;4979;51.014;6.678;2023-07-09T00:06:43;24.00;99.90
9881;DHT22;4979;51.014;6.678;2023-07-09T00:09:18;24.00;99.90
9881;DHT22;4979;51.014;6.678;2023-07-09T00:11:44;23.90;99.90
9881;DHT22;4979;51.014;6.678;2023-07-09T00:14:14;23.90;99.90
9881;DHT22;4979;51.014;6.678;2023-07-09T00:16:41;23.90;99.90
9881;DHT22;4979;51.014;6.678;2023-07-09T00:19:12;23.90;99.90
9881;DHT22;4979;51.014;6.678;2023-07-09T00:21:45;23.90;99.90
9881;DHT22;4979;51.014;6.678;2023-07-09T00:24:12;23.80;99.90
9881;DHT22;4979;51.014;6.678;2023-07-09T00:26:38;23.80;99.90
9881;DHT22;4979;51.014;6.678;2023-07-09T00:29:08;23.70;99.90
9881;DHT22;4979;51.014;6.678;2023-07-09T00:31:35;23.70;99.90
9881;DHT22;4979;51.014;6.678;2023-07-09T00:34:04;23.60;99.90
9881;DHT22;4979;51.014;6.678;2023-07-09T00:36:31;23.40;99.90
9881;DHT22;4979;51.014;6.678;2023-07-09T00:38:57;23.50;99.90
9881;DHT22;4979;51.014;6.678;2023-07-09T00:41:27;23.40;99.90
9881;DHT22;4979;51.014;6.678;2023-07-09T00:43:54;23.40;99.90
9881;DHT22;4979;51.014;6.678;2023-07-09T00:48:56;23.40;99.90
9881;DHT22;4979;51.014;6.678;2023-07-09T00:51:25;23.40;99.90
9881;DHT22;4979;51.014;6.678;2023-07-09T00:53:54;23.40;99.90
9881;DHT22;4979;51.014;6.678;2023-07-09T00:56:41;23.20;99.90
9881;DHT22;4979;51.014;6.678;2023-07-09T00:59:13;23.10;99.90
9881;DHT22;4979;51.014;6.678;2023-07-09T01:01:41;23.10;99.90
9881;DHT22;4979;51.014;6.678;2023-07-09T01:04:09;23.10;99.90
9881;DHT22;4979;51.014;6.678;2023-07-09T01:06:52;23.00;99.90
9881;DHT22;4979;51.014;6.678;2023-07-09T01:09:18;22.90;99.90
9881;DHT22;4979;51.014;6.678;2023-07-09T01:11:44;23.00;99.90
9881;DHT22;4979;51.014;6.678;2023-07-09T01:14:12;22.90;99.90
9881;DHT22;4979;51.014;6.678;2023-07-09T01:16:43;22.80;99.90
9881;DHT22;4979;51.014;6.678;2023-07-09T01:19:11;22.80;99.90
9881;DHT22;4979;51.014;6.678;2023-07-09T01:21:39;22.80;99.90
9881;DHT22;4979;51.014;6.678;2023-07-09T01:24:45;22.70;99.90
9881;DHT22;4979;51.014;6.678;2023-07-09T01:27:01;22.80;99.90
9881;DHT22;4979;51.014;6.678;2023-07-09T01:29:31;22.80;99.90
9881;DHT22;4979;51.014;6.678;2023-07-09T01:31:58;22.80;99.90
9881;DHT22;4979;51.014;6.678;2023-07-09T01:34:24;22.90;99.90
9881;DHT22;4979;51.014;6.678;2023-07-09T01:36:50;22.80;99.90
9881;DHT22;4979;51.014;6.678;2023-07-09T01:39:17;22.80;99.90
9881;DHT22;4979;51.014;6.678;2023-07-09T01:41:44;22.80;99.90
9881;DHT22;4979;51.014;6.678;2023-07-09T01:44:13;22.80;99.90
9881;DHT22;4979;51.014;6.678;2023-07-09T01:46:39;22.80;99.90
9881;DHT22;4979;51.014;6.678;2023-07-09T01:49:04;22.80;99.90
9881;DHT22;4979;51.014;6.678;2023-07-09T01:51:33;22.80;99.90
9881;DHT22;4979;51.014;6.678;2023-07-09T01:53:59;22.70;99.90
9881;DHT22;4979;51.014;6.678;2023-07-09T01:56:25;22.70;99.90
9881;DHT22;4979;51.014;6.678;2023-07-09T01:58:51;22.80;99.90
9881;DHT22;4979;51.014;6.678;2023-07-09T02:01:16;22.70;99.90
9881;DHT22;4979;51.014;6.678;2023-07-09T02:03:45;22.80;99.90
9881;DHT22;4979;51.014;6.678;2023-07-09T02:06:11;22.70;99.90
9881;DHT22;4979;51.014;6.678;2023-07-09T02:08:37;22.70;99.90
9881;DHT22;4979;51.014;6.678;2023-07-09T02:11:03;22.70;99.90
9881;DHT22;4979;51.014;6.678;2023-07-09T02:13:29;22.70;99.90
9881;DHT22;4979;51.014;6.678;2023-07-09T02:15:54;22.80;99.90
9881;DHT22;4979;51.014;6.678;2023-07-09T02:18:20;22.70;99.90
9881;DHT22;4979;51.014;6.678;2023-07-09T02:20:46;22.70;99.90
9881;DHT22;4979;51.014;6.678;2023-07-09T02:23:12;22.70;99.90
9881;DHT22;4979;51.014;6.678;2023-07-09T02:25:37;22.70;99.90
9881;DHT22;4979;51.014;6.678;2023-07-09T02:28:03;22.60;99.90
9881;DHT22;4979;51.014;6.678;2023-07-09T02:30:28;22.60;99.90
9881;DHT22;4979;51.014;6.678;2023-07-09T02:32:54;22.50;99.90
9881;DHT22;4979;51.014;6.678;2023-07-09T02:35:20;22.60;99.90
9881;DHT22;4979;51.014;6.678;2023-07-09T02:37:46;22.50;99.90
9881;DHT22;4979;51.014;6.678;2023-07-09T02:40:13;22.50;99.90
9881;DHT22;4979;51.014;6.678;2023-07-09T02:42:39;22.30;99.90
9881;DHT22;4979;51.014;6.678;2023-07-09T02:45:05;22.40;99.90
9881;DHT22;4979;51.014;6.678;2023-07-09T02:47:31;22.50;99.90
9881;DHT22;4979;51.014;6.678;2023-07-09T02:49:56;22.50;99.90
9881;DHT22;4979;51.014;6.678;2023-07-09T02:52:22;22.50;99.90
9881;DHT22;4979;51.014;6.678;2023-07-09T02:54:47;22.30;99.90
9881;DHT22;4979;51.014;6.678;2023-07-09T02:57:13;22.50;99.90
9881;DHT22;4979;51.014;6.678;2023-07-09T02:59:38;22.50;99.90
9881;DHT22;4979;51.014;6.678;2023-07-09T03:02:04;22.40;99.90
9881;DHT22;4979;51.014;6.678;2023-07-09T03:04:30;22.50;99.90
9881;DHT22;4979;51.014;6.678;2023-07-09T03:06:59;22.40;99.90
9881;DHT22;4979;51.014;6.678;2023-07-09T03:09:28;22.40;99.90
9881;DHT22;4979;51.014;6.678;2023-07-09T03:11:54;22.10;99.90
9881;DHT22;4979;51.014;6.678;2023-07-09T03:14:20;21.90;99.90
9881;DHT22;4979;51.014;6.678;2023-07-09T03:16:46;21.90;99.90
9881;DHT22;4979;51.014;6.678;2023-07-09T03:19:11;22.00;99.90
9881;DHT22;4979;51.014;6.678;2023-07-09T03:21:37;22.00;99.90
9881;DHT22;4979;51.014;6.678;2023-07-09T03:24:03;22.10;99.90
9881;DHT22;4979;51.014;6.678;2023-07-09T03:26:28;22.00;99.90
9881;DHT22;4979;51.014;6.678;2023-07-09T03:28:54;22.00;99.90
9881;DHT22;4979;51.014;6.678;2023-07-09T03:31:21;22.00;99.90
9881;DHT22;4979;51.014;6.678;2023-07-09T03:33:50;22.00;99.90
9881;DHT22;4979;51.014;6.678;2023-07-09T03:36:17;22.00;99.90
9881;DHT22;4979;51.014;6.678;2023-07-09T03:38:44;22.00;99.90
9881;DHT22;4979;51.014;6.678;2023-07-09T03:41:10;22.10;99.90
9881;DHT22;4979;51.014;6.678;2023-07-09T03:43:36;22.00;99.90
9881;DHT22;4979;51.014;6.678;2023-07-09T03:46:01;21.90;99.90
9881;DHT22;4979;51.014;6.678;2023-07-09T03:48:27;21.90;99.90
9881;DHT22;4979;51.014;6.678;2023-07-09T03:50:52;22.00;99.90
9881;DHT22;4979;51.014;6.678;2023-07-09T03:53:18;22.00;99.90
9881;DHT22;4979;51.014;6.678;2023-07-09T03:55:46;22.00;99.90
9881;DHT22;4979;51.014;6.678;2023-07-09T03:58:12;22.10;99.90
9881;DHT22;4979;51.014;6.678;2023-07-09T04:00:38;22.10;99.90
9881;DHT22;4979;51.014;6.678;2023-07-09T04:03:03;22.20;99.90
9881;DHT22;4979;51.014;6.678;2023-07-09T04:05:29;22.10;99.90
9881;DHT22;4979;51.014;6.678;2023-07-09T04:07:55;22.00;99.90
9881;DHT22;4979;51.014;6.678;2023-07-09T04:10:21;22.10;99.90
9881;DHT22;4979;51.014;6.678;2023-07-09T04:12:46;22.00;99.90
9881;DHT22;4979;51.014;6.678;2023-07-09T04:15:12;22.00;99.90
9881;DHT22;4979;51.014;6.678;2023-07-09T04:17:39;22.10;99.90
9881;DHT22;4979;51.014;6.678;2023-07-09T04:20:06;22.20;99.90
9881;DHT22;4979;51.014;6.678;2023-07-09T04:22:33;22.20;99.90
9881;DHT22;4979;51.014;6.678;2023-07-09T04:24:59;22.30;99.90
9881;DHT22;4979;51.014;6.678;2023-07-09T04:27:25;22.40;99.90
9881;DHT22;4979;51.014;6.678;2023-07-09T04:29:53;22.50;99.90
9881;DHT22;4979;51.014;6.678;2023-07-09T04:32:19;22.50;99.90
9881;DHT22;4979;51.014;6.678;2023-07-09T04:34:45;22.40;99.90
9881;DHT22;4979;51.014;6.678;2023-07-09T04:37:11;22.50;99.90
9881;DHT22;4979;51.014;6.678;2023-07-09T04:39:37;22.50;99.90
9881;DHT22;4979;51.014;6.678;2023-07-09T04:42:03;22.70;99.90
9881;DHT22;4979;51.014;6.678;2023-07-09T04:44:29;22.80;99.90
9881;DHT22;4979;51.014;6.678;2023-07-09T04:46:55;23.00;99.90
9881;DHT22;4979;51.014;6.678;2023-07-09T04:49:20;23.10;99.90
9881;DHT22;4979;51.014;6.678;2023-07-09T04:51:46;23.20;99.90
9881;DHT22;4979;51.014;6.678;2023-07-09T04:54:11;23.20;99.90
9881;DHT22;4979;51.014;6.678;2023-07-09T04:56:41;23.30;99.90
9881;DHT22;4979;51.014;6.678;2023-07-09T04:59:10;23.40;99.90
9881;DHT22;4979;51.014;6.678;2023-07-09T05:01:36;23.60;99.90
9881;DHT22;4979;51.014;6.678;2023-07-09T05:04:02;23.70;99.90
9881;DHT22;4979;51.014;6.678;2023-07-09T05:06:27;23.80;99.90
9881;DHT22;4979;51.014;6.678;2023-07-09T05:08:53;23.80;99.90
9881;DHT22;4979;51.014;6.678;2023-07-09T05:11:19;24.00;99.90
9881;DHT22;4979;51.014;6.678;2023-07-09T05:13:44;23.80;99.90
9881;DHT22;4979;51.014;6.678;2023-07-09T05:16:10;24.00;99.90
9881;DHT22;4979;51.014;6.678;2023-07-09T05:18:37;24.10;99.90
9881;DHT22;4979;51.014;6.678;2023-07-09T05:21:03;24.20;99.90
9881;DHT22;4979;51.014;6.678;2023-07-09T05:23:28;24.10;99.90
9881;DHT22;4979;51.014;6.678;2023-07-09T05:25:58;24.10;99.90
9881;DHT22;4979;51.014;6.678;2023-07-09T05:28:24;24.10;99.90
9881;DHT22;4979;51.014;6.678;2023-07-09T05:30:50;24.10;99.90
9881;DHT22;4979;51.014;6.678;2023-07-09T05:33:17;24.20;99.90
9881;DHT22;4979;51.014;6.678;2023-07-09T05:35:44;24.40;99.90
9881;DHT22;4979;51.014;6.678;2023-07-09T05:38:09;24.30;99.90
9881;DHT22;4979;51.014;6.678;2023-07-09T05:40:35;24.50;99.90
9881;DHT22;4979;51.014;6.678;2023-07-09T05:43:00;24.50;99.90
9881;DHT22;4979;51.014;6.678;2023-07-09T05:45:26;24.60;99.90
9881;DHT22;4979;51.014;6.678;2023-07-09T05:47:52;24.70;99.90
9881;DHT22;4979;51.014;6.678;2023-07-09T05:50:17;24.70;99.90
9881;DHT22;4979;51.014;6.678;2023-07-09T05:52:43;24.60;99.90
9881;DHT22;4979;51.014;6.678;2023-07-09T05:55:09;24.80;99.90
9881;DHT22;4979;51.014;6.678;2023-07-09T05:57:34;24.90;99.90
9881;DHT22;4979;51.014;6.678;2023-07-09T06:00:00;24.90;99.90
9881;DHT22;4979;51.014;6.678;2023-07-09T06:02:25;24.90;99.90
9881;DHT22;4979;51.014;6.678;2023-07-09T06:04:51;25.00;99.90
9881;DHT22;4979;51.014;6.678;2023-07-09T06:07:17;25.00;99.90
9881;DHT22;4979;51.014;6.678;2023-07-09T06:09:46;25.10;99.90
9881;DHT22;4979;51.014;6.678;2023-07-09T06:12:12;25.00;99.90
9881;DHT22;4979;51.014;6.678;2023-07-09T06:14:37;25.10;99.90
9881;DHT22;4979;51.014;6.678;2023-07-09T06:17:03;25.30;99.90
9881;DHT22;4979;51.014;6.678;2023-07-09T06:19:29;25.30;99.90
9881;DHT22;4979;51.014;6.678;2023-07-09T06:21:55;25.40;99.90
9881;DHT22;4979;51.014;6.678;2023-07-09T06:24:21;25.30;99.90
9881;DHT22;4979;51.014;6.678;2023-07-09T06:26:47;25.30;99.90
9881;DHT22;4979;51.014;6.678;2023-07-09T06:29:13;25.40;99.90
9881;DHT22;4979;51.014;6.678;2023-07-09T06:31:38;25.60;99.90
9881;DHT22;4979;51.014;6.678;2023-07-09T06:34:06;25.70;99.90
9881;DHT22;4979;51.014;6.678;2023-07-09T06:36:32;25.80;99.90
9881;DHT22;4979;51.014;6.678;2023-07-09T06:38:58;25.90;99.90
9881;DHT22;4979;51.014;6.678;2023-07-09T06:41:24;26.00;99.90
9881;DHT22;4979;51.014;6.678;2023-07-09T06:43:50;26.20;99.90
9881;DHT22;4979;51.014;6.678;2023-07-09T06:46:18;26.00;99.90
9881;DHT22;4979;51.014;6.678;2023-07-09T06:48:44;26.30;99.90
9881;DHT22;4979;51.014;6.678;2023-07-09T06:51:09;26.30;99.90
9881;DHT22;4979;51.014;6.678;2023-07-09T06:53:35;26.40;99.90
9881;DHT22;4979;51.014;6.678;2023-07-09T06:56:01;26.40;99.90
9881;DHT22;4979;51.014;6.678;2023-07-09T06:58:30;26.50;99.90
9881;DHT22;4979;51.014;6.678;2023-07-09T07:01:04;26.60;99.90
9881;DHT22;4979;51.014;6.678;2023-07-09T07:03:31;26.70;99.90
9881;DHT22;4979;51.014;6.678;2023-07-09T07:05:57;26.80;99.90
9881;DHT22;4979;51.014;6.678;2023-07-09T07:08:24;27.10;99.90
9881;DHT22;4979;51.014;6.678;2023-07-09T07:10:55;26.80;99.90
9881;DHT22;4979;51.014;6.678;2023-07-09T07:13:32;27.00;99.90
9881;DHT22;4979;51.014;6.678;2023-07-09T07:15:58;27.00;99.90
9881;DHT22;4979;51.014;6.678;2023-07-09T07:18:23;27.30;99.90
9881;DHT22;4979;51.014;6.678;2023-07-09T07:20:49;27.40;99.90
9881;DHT22;4979;51.014;6.678;2023-07-09T07:23:16;27.40;99.90
9881;DHT22;4979;51.014;6.678;2023-07-09T07:25:42;27.40;99.90
9881;DHT22;4979;51.014;6.678;2023-07-09T07:28:08;27.50;99.90
9881;DHT22;4979;51.014;6.678;2023-07-09T07:30:33;27.60;99.90
9881;DHT22;4979;51.014;6.678;2023-07-09T07:32:59;27.80;99.90
9881;DHT22;4979;51.014;6.678;2023-07-09T07:35:24;27.80;99.90
9881;DHT22;4979;51.014;6.678;2023-07-09T07:37:50;28.00;99.90
9881;DHT22;4979;51.014;6.678;2023-07-09T07:40:15;27.90;99.90
9881;DHT22;4979;51.014;6.678;2023-07-09T07:42:41;28.00;99.90
9881;DHT22;4979;51.014;6.678;2023-07-09T07:45:07;28.20;99.90
9881;DHT22;4979;51.014;6.678;2023-07-09T07:47:33;28.30;99.90
9881;DHT22;4979;51.014;6.678;2023-07-09T07:49:59;28.40;99.90
9881;DHT22;4979;51.014;6.678;2023-07-09T07:52:25;28.50;99.90
9881;DHT22;4979;51.014;6.678;2023-07-09T07:54:51;28.60;99.90
9881;DHT22;4979;51.014;6.678;2023-07-09T07:57:18;28.60;99.90
9881;DHT22;4979;51.014;6.678;2023-07-09T07:59:43;28.70;99.90
9881;DHT22;4979;51.014;6.678;2023-07-09T08:02:13;29.00;99.90
9881;DHT22;4979;51.014;6.678;2023-07-09T08:04:40;29.00;99.90
9881;DHT22;4979;51.014;6.678;2023-07-09T08:07:09;29.00;99.90
9881;DHT22;4979;51.014;6.678;2023-07-09T08:09:35;29.00;99.90
9881;DHT22;4979;51.014;6.678;2023-07-09T08:12:02;28.90;99.90
9881;DHT22;4979;51.014;6.678;2023-07-09T08:14:34;29.20;99.90
9881;DHT22;4979;51.014;6.678;2023-07-09T08:17:00;29.20;99.90
9881;DHT22;4979;51.014;6.678;2023-07-09T08:19:25;29.50;99.90
9881;DHT22;4979;51.014;6.678;2023-07-09T08:21:51;29.50;99.90
9881;DHT22;4979;51.014;6.678;2023-07-09T08:24:17;29.60;99.90
9881;DHT22;4979;51.014;6.678;2023-07-09T08:26:43;29.80;99.90
9881;DHT22;4979;51.014;6.678;2023-07-09T08:29:08;30.10;99.90
9881;DHT22;4979;51.014;6.678;2023-07-09T08:31:34;30.00;99.90
9881;DHT22;4979;51.014;6.678;2023-07-09T08:33:59;30.20;99.90
9881;DHT22;4979;51.014;6.678;2023-07-09T08:36:25;30.10;99.90
9881;DHT22;4979;51.014;6.678;2023-07-09T08:38:50;30.20;99.90
9881;DHT22;4979;51.014;6.678;2023-07-09T08:41:42;30.40;99.90
9881;DHT22;4979;51.014;6.678;2023-07-09T08:47:03;30.40;99.90
9881;DHT22;4979;51.014;6.678;2023-07-09T08:49:54;30.60;99.90
9881;DHT22;4979;51.014;6.678;2023-07-09T08:52:31;30.80;99.90
9881;DHT22;4979;51.014;6.678;2023-07-09T08:55:00;30.80;99.90
9881;DHT22;4979;51.014;6.678;2023-07-09T08:57:33;30.90;99.90
9881;DHT22;4979;51.014;6.678;2023-07-09T09:00:05;30.90;99.90
9881;DHT22;4979;51.014;6.678;2023-07-09T09:02:41;31.00;99.90
9881;DHT22;4979;51.014;6.678;2023-07-09T09:05:11;31.10;99.90
9881;DHT22;4979;51.014;6.678;2023-07-09T09:07:43;31.30;99.90
9881;DHT22;4979;51.014;6.678;2023-07-09T09:10:18;31.50;99.90
9881;DHT22;4979;51.014;6.678;2023-07-09T09:15:21;31.60;99.90
9881;DHT22;4979;51.014;6.678;2023-07-09T09:17:52;31.70;99.90
9881;DHT22;4979;51.014;6.678;2023-07-09T09:20:22;31.70;99.90
9881;DHT22;4979;51.014;6.678;2023-07-09T09:25:33;32.00;99.90
9881;DHT22;4979;51.014;6.678;2023-07-09T09:28:01;32.10;99.90
9881;DHT22;4979;51.014;6.678;2023-07-09T09:30:27;32.10;99.90
9881;DHT22;4979;51.014;6.678;2023-07-09T09:32:58;32.00;99.90
9881;DHT22;4979;51.014;6.678;2023-07-09T09:35:32;32.20;99.90
9881;DHT22;4979;51.014;6.678;2023-07-09T09:37:59;32.20;99.90
9881;DHT22;4979;51.014;6.678;2023-07-09T09:40:27;32.40;99.90
9881;DHT22;4979;51.014;6.678;2023-07-09T09:42:56;32.70;99.90
9881;DHT22;4979;51.014;6.678;2023-07-09T09:45:34;32.80;99.90
9881;DHT22;4979;51.014;6.678;2023-07-09T09:48:05;32.70;99.90
9881;DHT22;4979;51.014;6.678;2023-07-09T09:50:35;32.80;99.90
9881;DHT22;4979;51.014;6.678;2023-07-09T09:53:01;32.90;99.90
9881;DHT22;4979;51.014;6.678;2023-07-09T09:55:31;33.00;99.90
9881;DHT22;4979;51.014;6.678;2023-07-09T09:57:58;33.10;99.90
9881;DHT22;4979;51.014;6.678;2023-07-09T10:00:26;33.30;99.90
9881;DHT22;4979;51.014;6.678;2023-07-09T10:03:05;33.30;99.90
9881;DHT22;4979;51.014;6.678;2023-07-09T10:05:40;33.50;99.90
9881;DHT22;4979;51.014;6.678;2023-07-09T10:08:18;33.50;99.90
9881;DHT22;4979;51.014;6.678;2023-07-09T10:10:46;33.60;99.90
9881;DHT22;4979;51.014;6.678;2023-07-09T10:13:20;33.60;99.90
9881;DHT22;4979;51.014;6.678;2023-07-09T10:21:47;33.90;99.90
9881;DHT22;4979;51.014;6.678;2023-07-09T10:24:29;33.90;99.90
9881;DHT22;4979;51.014;6.678;2023-07-09T10:27:16;34.00;99.90
9881;DHT22;4979;51.014;6.678;2023-07-09T10:30:13;34.10;99.90
9881;DHT22;4979;51.014;6.678;2023-07-09T10:35:18;34.20;99.90
9881;DHT22;4979;51.014;6.678;2023-07-09T10:38:09;34.40;99.90
9881;DHT22;4979;51.014;6.678;2023-07-09T10:40:52;34.20;99.90
9881;DHT22;4979;51.014;6.678;2023-07-09T10:43:37;34.40;99.90
9881;DHT22;4979;51.014;6.678;2023-07-09T10:46:16;34.50;99.90
9881;DHT22;4979;51.014;6.678;2023-07-09T10:48:48;34.60;99.90
9881;DHT22;4979;51.014;6.678;2023-07-09T10:51:33;34.60;99.40
9881;DHT22;4979;51.014;6.678;2023-07-09T10:56:34;34.70;99.90
9881;DHT22;4979;51.014;6.678;2023-07-09T11:01:47;34.90;99.00
9881;DHT22;4979;51.014;6.678;2023-07-09T11:04:24;35.10;99.20
9881;DHT22;4979;51.014;6.678;2023-07-09T11:06:55;34.80;97.50
9881;DHT22;4979;51.014;6.678;2023-07-09T11:09:38;35.10;97.50
9881;DHT22;4979;51.014;6.678;2023-07-09T11:12:16;35.10;97.50
9881;DHT22;4979;51.014;6.678;2023-07-09T11:14:53;35.20;97.60
9881;DHT22;4979;51.014;6.678;2023-07-09T11:17:21;35.30;97.60
9881;DHT22;4979;51.014;6.678;2023-07-09T11:19:54;35.50;97.30
9881;DHT22;4979;51.014;6.678;2023-07-09T11:25:07;35.50;94.70
9881;DHT22;4979;51.014;6.678;2023-07-09T11:27:33;35.80;94.00
9881;DHT22;4979;51.014;6.678;2023-07-09T11:30:16;35.80;93.80
9881;DHT22;4979;51.014;6.678;2023-07-09T11:32:52;35.30;93.50
9881;DHT22;4979;51.014;6.678;2023-07-09T11:35:23;35.60;93.20
9881;DHT22;4979;51.014;6.678;2023-07-09T11:37:49;35.50;93.30
9881;DHT22;4979;51.014;6.678;2023-07-09T11:40:15;35.50;93.10
9881;DHT22;4979;51.014;6.678;2023-07-09T11:42:52;35.50;92.50
9881;DHT22;4979;51.014;6.678;2023-07-09T11:45:23;35.80;92.50
9881;DHT22;4979;51.014;6.678;2023-07-09T11:48:26;35.80;92.00
9881;DHT22;4979;51.014;6.678;2023-07-09T11:50:54;36.00;90.10
9881;DHT22;4979;51.014;6.678;2023-07-09T11:53:43;36.30;91.20
9881;DHT22;4979;51.014;6.678;2023-07-09T11:56:11;36.20;90.30
9881;DHT22;4979;51.014;6.678;2023-07-09T11:58:51;36.00;87.70
9881;DHT22;4979;51.014;6.678;2023-07-09T12:01:21;35.80;84.40
9881;DHT22;4979;51.014;6.678;2023-07-09T12:03:47;36.00;85.40
9881;DHT22;4979;51.014;6.678;2023-07-09T12:06:24;35.80;85.20
9881;DHT22;4979;51.014;6.678;2023-07-09T12:08:52;35.80;83.40
9881;DHT22;4979;51.014;6.678;2023-07-09T12:13:51;35.80;81.70
9881;DHT22;4979;51.014;6.678;2023-07-09T12:16:31;35.80;82.20
9881;DHT22;4979;51.014;6.678;2023-07-09T12:18:58;36.00;80.40
9881;DHT22;4979;51.014;6.678;2023-07-09T12:21:25;36.00;81.00
9881;DHT22;4979;51.014;6.678;2023-07-09T12:23:52;36.40;83.10
9881;DHT22;4979;51.014;6.678;2023-07-09T12:26:19;36.70;81.80
9881;DHT22;4979;51.014;6.678;2023-07-09T12:28:56;36.70;80.70
9881;DHT22;4979;51.014;6.678;2023-07-09T12:31:28;36.90;78.90
9881;DHT22;4979;51.014;6.678;2023-07-09T12:33:55;36.40;77.30
9881;DHT22;4979;51.014;6.678;2023-07-09T12:36:21;36.50;77.70
9881;DHT22;4979;51.014;6.678;2023-07-09T12:38:54;36.20;77.30
9881;DHT22;4979;51.014;6.678;2023-07-09T12:41:27;35.90;78.60
9881;DHT22;4979;51.014;6.678;2023-07-09T12:43:54;35.80;80.10
9881;DHT22;4979;51.014;6.678;2023-07-09T12:46:21;35.80;78.80
9881;DHT22;4979;51.014;6.678;2023-07-09T12:48:48;35.70;78.00
9881;DHT22;4979;51.014;6.678;2023-07-09T12:51:18;35.60;79.10
9881;DHT22;4979;51.014;6.678;2023-07-09T12:53:45;35.50;82.30
9881;DHT22;4979;51.014;6.678;2023-07-09T12:56:13;35.30;80.80
9881;DHT22;4979;51.014;6.678;2023-07-09T12:58:39;35.30;81.80
9881;DHT22;4979;51.014;6.678;2023-07-09T13:01:07;35.10;83.00
9881;DHT22;4979;51.014;6.678;2023-07-09T13:03:34;34.90;83.60
9881;DHT22;4979;51.014;6.678;2023-07-09T13:06:05;34.70;82.00
9881;DHT22;4979;51.014;6.678;2023-07-09T13:08:39;34.50;84.50
9881;DHT22;4979;51.014;6.678;2023-07-09T13:11:14;34.40;84.10
9881;DHT22;4979;51.014;6.678;2023-07-09T13:13:40;34.20;87.50
9881;DHT22;4979;51.014;6.678;2023-07-09T13:16:06;33.90;87.00
9881;DHT22;4979;51.014;6.678;2023-07-09T13:18:32;33.70;89.20
9881;DHT22;4979;51.014;6.678;2023-07-09T13:20:58;33.60;85.20
9881;DHT22;4979;51.014;6.678;2023-07-09T13:23:28;33.50;88.50
9881;DHT22;4979;51.014;6.678;2023-07-09T13:25:55;33.40;90.30
9881;DHT22;4979;51.014;6.678;2023-07-09T13:28:29;33.20;90.60
9881;DHT22;4979;51.014;6.678;2023-07-09T13:31:15;33.10;90.50
9881;DHT22;4979;51.014;6.678;2023-07-09T13:33:51;33.00;91.80
9881;DHT22;4979;51.014;6.678;2023-07-09T13:36:18;32.50;94.40
9881;DHT22;4979;51.014;6.678;2023-07-09T13:38:44;30.60;99.90
9881;DHT22;4979;51.014;6.678;2023-07-09T13:41:16;29.10;99.90
9881;DHT22;4979;51.014;6.678;2023-07-09T13:43:44;28.00;99.90
9881;DHT22;4979;51.014;6.678;2023-07-09T13:46:10;27.30;99.90
9881;DHT22;4979;51.014;6.678;2023-07-09T13:48:38;27.10;99.90
9881;DHT22;4979;51.014;6.678;2023-07-09T13:51:23;27.40;99.90
9881;DHT22;4979;51.014;6.678;2023-07-09T13:53:51;27.70;99.90
9881;DHT22;4979;51.014;6.678;2023-07-09T13:56:18;27.80;99.90
9881;DHT22;4979;51.014;6.678;2023-07-09T13:58:43;27.70;99.90
9881;DHT22;4979;51.014;6.678;2023-07-09T14:01:12;27.90;99.90
9881;DHT22;4979;51.014;6.678;2023-07-09T14:03:38;27.90;99.90
9881;DHT22;4979;51.014;6.678;2023-07-09T14:06:04;27.70;99.90
9881;DHT22;4979;51.014;6.678;2023-07-09T14:08:30;27.40;99.90
9881;DHT22;4979;51.014;6.678;2023-07-09T14:10:55;27.20;99.90
9881;DHT22;4979;51.014;6.678;2023-07-09T14:13:23;27.20;99.90
9881;DHT22;4979;51.014;6.678;2023-07-09T14:15:49;26.90;99.90
9881;DHT22;4979;51.014;6.678;2023-07-09T14:18:17;26.60;99.90
9881;DHT22;4979;51.014;6.678;2023-07-09T14:20:43;26.60;99.90
9881;DHT22;4979;51.014;6.678;2023-07-09T14:23:16;26.90;99.90
9881;DHT22;4979;51.014;6.678;2023-07-09T14:25:43;26.70;99.90
9881;DHT22;4979;51.014;6.678;2023-07-09T14:28:17;26.40;99.90
9881;DHT22;4979;51.014;6.678;2023-07-09T14:30:44;25.90;99.90
9881;DHT22;4979;51.014;6.678;2023-07-09T14:33:16;25.40;99.90
9881;DHT22;4979;51.014;6.678;2023-07-09T14:35:43;24.80;99.90
9881;DHT22;4979;51.014;6.678;2023-07-09T14:38:16;24.60;99.90
9881;DHT22;4979;51.014;6.678;2023-07-09T14:40:43;24.20;99.90
9881;DHT22;4979;51.014;6.678;2023-07-09T14:43:10;23.80;99.90
9881;DHT22;4979;51.014;6.678;2023-07-09T14:45:36;23.50;99.90
9881;DHT22;4979;51.014;6.678;2023-07-09T14:48:04;23.40;99.90
9881;DHT22;4979;51.014;6.678;2023-07-09T14:50:33;23.20;99.90
9881;DHT22;4979;51.014;6.678;2023-07-09T14:52:59;23.20;99.90
9881;DHT22;4979;51.014;6.678;2023-07-09T14:55:25;23.30;99.90
9881;DHT22;4979;51.014;6.678;2023-07-09T14:57:51;23.40;99.90
9881;DHT22;4979;51.014;6.678;2023-07-09T15:00:19;23.20;99.90
9881;DHT22;4979;51.014;6.678;2023-07-09T15:02:49;23.00;99.90
9881;DHT22;4979;51.014;6.678;2023-07-09T15:05:19;22.90;99.90
9881;DHT22;4979;51.014;6.678;2023-07-09T15:07:46;22.90;99.90
9881;DHT22;4979;51.014;6.678;2023-07-09T15:10:26;23.00;99.90
9881;DHT22;4979;51.014;6.678;2023-07-09T15:12:53;23.10;99.90
9881;DHT22;4979;51.014;6.678;2023-07-09T15:17:45;23.40;99.90
9881;DHT22;4979;51.014;6.678;2023-07-09T15:20:20;23.40;99.90
9881;DHT22;4979;51.014;6.678;2023-07-09T15:22:48;23.50;99.90
9881;DHT22;4979;51.014;6.678;2023-07-09T15:25:23;23.40;99.90
9881;DHT22;4979;51.014;6.678;2023-07-09T15:27:49;23.50;99.90
9881;DHT22;4979;51.014;6.678;2023-07-09T15:30:22;23.50;99.90
9881;DHT22;4979;51.014;6.678;2023-07-09T15:32:49;23.60;99.90
9881;DHT22;4979;51.014;6.678;2023-07-09T15:35:16;23.70;99.90
9881;DHT22;4979;51.014;6.678;2023-07-09T15:37:43;23.80;99.90
9881;DHT22;4979;51.014;6.678;2023-07-09T15:42:47;24.10;99.90
9881;DHT22;4979;51.014;6.678;2023-07-09T15:45:15;24.20;99.90
9881;DHT22;4979;51.014;6.678;2023-07-09T15:47:40;24.40;99.90
9881;DHT22;4979;51.014;6.678;2023-07-09T15:52:44;24.80;99.90
9881;DHT22;4979;51.014;6.678;2023-07-09T15:55:24;24.90;99.90
9881;DHT22;4979;51.014;6.678;2023-07-09T15:57:51;25.20;99.90
9881;DHT22;4979;51.014;6.678;2023-07-09T16:00:28;25.30;99.90
9881;DHT22;4979;51.014;6.678;2023-07-09T16:02:56;25.40;99.90
9881;DHT22;4979;51.014;6.678;2023-07-09T16:05:28;25.50;99.90
9881;DHT22;4979;51.014;6.678;2023-07-09T16:07:56;25.30;99.90
9881;DHT22;4979;51.014;6.678;2023-07-09T16:10:24;25.20;99.90
9881;DHT22;4979;51.014;6.678;2023-07-09T16:12:51;25.30;99.90
9881;DHT22;4979;51.014;6.678;2023-07-09T16:15:21;25.40;99.90
9881;DHT22;4979;51.014;6.678;2023-07-09T16:17:48;25.30;99.90
9881;DHT22;4979;51.014;6.678;2023-07-09T16:20:16;25.20;99.90
9881;DHT22;4979;51.014;6.678;2023-07-09T16:22:49;25.10;99.90
9881;DHT22;4979;51.014;6.678;2023-07-09T16:25:36;25.00;99.90
9881;DHT22;4979;51.014;6.678;2023-07-09T16:28:02;24.90;99.90
9881;DHT22;4979;51.014;6.678;2023-07-09T16:30:29;24.90;99.90
9881;DHT22;4979;51.014;6.678;2023-07-09T16:32:58;24.90;99.90
9881;DHT22;4979;51.014;6.678;2023-07-09T16:35:26;24.80;99.90
9881;DHT22;4979;51.014;6.678;2023-07-09T16:37:53;25.00;99.90
9881;DHT22;4979;51.014;6.678;2023-07-09T16:40:28;25.10;99.90
9881;DHT22;4979;51.014;6.678;2023-07-09T16:42:56;25.10;99.90
9881;DHT22;4979;51.014;6.678;2023-07-09T16:45:23;25.20;99.90
9881;DHT22;4979;51.014;6.678;2023-07-09T16:47:50;25.30;99.90
9881;DHT22;4979;51.014;6.678;2023-07-09T16:50:21;25.30;99.90